Time;durP1;ratioP1;P1;durP2;ratioP2;P2;SDS_P1;SDS_P2;PMS_P1;PMS_P2;Temp;Humidity;BMP_temperature;BMP_pressure;BME280_temperature;BME280_humidity;BME280_pressure;Samples;Min_cycle;Max_cycle;Signal;HPM_P1;HPM_P2
2023/08/18 00:02:19;;;;;;;24.92;16.83;;;18.40;99.90;;;;;;4995930;28;20061;-79
2023/08/18 00:04:45;;;;;;;22.83;16.63;;;18.40;99.90;;;;;;5014799;28;20130;-80
2023/08/18 00:07:10;;;;;;;28.38;17.75;;;18.40;99.90;;;;;;4988243;28;20142;-80
2023/08/18 00:09:36;;;;;;;26.92;17.55;;;18.40;99.90;;;;;;5015403;28;20033;-80
2023/08/18 00:12:01;;;;;;;27.27;17.45;;;18.30;99.90;;;;;;4987664;28;20044;-78
2023/08/18 00:14:27;;;;;;;27.35;18.38;;;18.30;99.90;;;;;;4999012;28;20038;-79
2023/08/18 00:16:52;;;;;;;37.55;20.50;;;18.30;99.90;;;;;;4986016;28;20060;-79
2023/08/18 00:19:18;;;;;;;27.27;19.05;;;18.30;99.90;;;;;;5000040;28;20374;-78
2023/08/18 00:21:43;;;;;;;26.55;19.58;;;18.30;99.90;;;;;;4983937;28;20689;-79
2023/08/18 00:24:09;;;;;;;32.10;19.85;;;18.30;99.90;;;;;;5016286;28;20042;-78
2023/08/18 00:26:34;;;;;;;32.05;19.52;;;18.30;99.90;;;;;;4999787;28;20375;-80
2023/08/18 00:29:00;;;;;;;27.38;17.88;;;18.20;99.90;;;;;;4999356;28;20685;-78
2023/08/18 00:31:25;;;;;;;31.05;20.30;;;18.20;99.90;;;;;;4997205;28;20022;-79
2023/08/18 00:33:51;;;;;;;34.22;20.55;;;18.20;99.90;;;;;;5000766;28;20350;-79
2023/08/18 00:36:17;;;;;;;33.50;21.77;;;18.20;99.90;;;;;;4981896;28;20053;-78
2023/08/18 00:38:42;;;;;;;31.80;20.17;;;18.20;99.90;;;;;;5013415;28;20034;-79
2023/08/18 00:41:08;;;;;;;32.20;21.00;;;18.30;99.90;;;;;;5001004;28;20087;-79
2023/08/18 00:43:33;;;;;;;40.00;22.85;;;18.20;99.90;;;;;;4999431;28;20037;-79
2023/08/18 00:45:59;;;;;;;32.50;21.13;;;18.30;99.90;;;;;;4999666;28;20022;-79
2023/08/18 00:48:24;;;;;;;32.90;21.35;;;18.10;99.90;;;;;;5001159;28;20397;-80
2023/08/18 00:50:50;;;;;;;34.47;19.88;;;18.20;99.90;;;;;;4987839;28;20029;-79
2023/08/18 00:53:16;;;;;;;30.50;20.15;;;18.20;99.90;;;;;;4987812;28;20033;-79
2023/08/18 00:55:41;;;;;;;31.00;20.88;;;18.20;99.90;;;;;;4999978;28;20038;-79
2023/08/18 00:58:07;;;;;;;29.55;20.58;;;18.20;99.90;;;;;;4978342;28;20045;-79
2023/08/18 01:00:33;;;;;;;31.95;21.33;;;18.20;99.90;;;;;;5009836;28;20057;-79
2023/08/18 01:03:00;;;;;;;31.75;21.55;;;18.20;99.90;;;;;;4996347;28;20444;-79
2023/08/18 01:05:25;;;;;;;29.50;20.95;;;18.30;99.90;;;;;;4993880;28;20100;-79
2023/08/18 01:07:51;;;;;;;31.67;20.45;;;18.20;99.90;;;;;;5016017;28;20038;-79
2023/08/18 01:10:16;;;;;;;34.00;21.38;;;18.20;99.90;;;;;;5014218;28;20087;-80
2023/08/18 01:13:06;;;;;;;32.00;21.10;;;18.20;99.90;;;;;;5021312;28;20029;-80
2023/08/18 01:15:38;;;;;;;31.90;21.52;;;18.20;99.90;;;;;;5003688;28;20563;-79
2023/08/18 01:18:04;;;;;;;31.13;21.83;;;18.10;99.90;;;;;;4995915;28;20401;-79
2023/08/18 01:20:30;;;;;;;30.27;20.77;;;18.10;99.90;;;;;;4987835;28;20045;-79
2023/08/18 01:23:02;;;;;;;26.85;19.85;;;18.10;99.90;;;;;;5001389;28;20428;-79
2023/08/18 01:25:28;;;;;;;29.42;19.23;;;18.10;99.90;;;;;;5016683;28;20512;-79
2023/08/18 01:27:54;;;;;;;27.10;18.73;;;18.10;99.90;;;;;;5003040;28;20038;-78
2023/08/18 01:30:20;;;;;;;30.95;20.88;;;18.10;99.90;;;;;;5004477;28;20053;-80
2023/08/18 01:32:52;;;;;;;26.20;18.88;;;18.10;99.90;;;;;;4989096;28;20100;-79
2023/08/18 01:35:18;;;;;;;30.15;19.27;;;18.10;99.90;;;;;;4986331;28;20481;-80
2023/08/18 01:37:44;;;;;;;23.90;16.80;;;18.00;99.90;;;;;;5015482;28;20044;-80
2023/08/18 01:40:10;;;;;;;27.83;19.10;;;18.10;99.90;;;;;;4992095;28;20062;-79
2023/08/18 01:42:36;;;;;;;24.27;17.17;;;18.10;99.90;;;;;;5000215;28;20033;-80
2023/08/18 01:45:02;;;;;;;30.02;18.88;;;18.10;99.90;;;;;;5015514;28;20030;-79
2023/08/18 01:47:28;;;;;;;30.00;20.45;;;18.10;99.90;;;;;;4991874;28;20049;-79
2023/08/18 01:49:54;;;;;;;29.25;18.30;;;18.00;99.90;;;;;;5000136;28;20037;-79
2023/08/18 01:52:20;;;;;;;32.15;18.48;;;18.00;99.90;;;;;;4989115;28;20689;-79
2023/08/18 01:54:46;;;;;;;27.48;18.35;;;17.90;99.90;;;;;;5017657;28;20084;-79
2023/08/18 01:57:11;;;;;;;28.45;19.15;;;18.00;99.90;;;;;;5017563;28;20053;-80
2023/08/18 01:59:38;;;;;;;27.50;18.10;;;18.00;99.90;;;;;;4999709;28;20124;-79
2023/08/18 02:02:03;;;;;;;20.55;15.80;;;18.00;99.90;;;;;;5015412;28;20116;-79
2023/08/18 02:04:29;;;;;;;29.58;18.75;;;18.10;99.90;;;;;;5003726;28;20071;-79
2023/08/18 02:06:54;;;;;;;24.48;17.90;;;18.00;99.90;;;;;;5003200;28;20038;-80
2023/08/18 02:09:20;;;;;;;29.00;18.63;;;18.00;99.90;;;;;;5017311;28;20464;-79
2023/08/18 02:11:45;;;;;;;25.30;17.15;;;18.00;99.90;;;;;;4997029;28;20097;-79
2023/08/18 02:14:11;;;;;;;28.73;19.50;;;18.00;99.90;;;;;;4997546;28;20034;-79
2023/08/18 02:16:37;;;;;;;29.33;19.17;;;18.10;99.90;;;;;;4982373;28;20466;-79
2023/08/18 02:19:03;;;;;;;29.48;18.52;;;18.00;99.90;;;;;;4999239;28;20037;-79
2023/08/18 02:21:30;;;;;;;29.63;18.83;;;18.00;99.90;;;;;;4999292;28;20131;-79
2023/08/18 02:23:56;;;;;;;26.45;16.73;;;18.00;99.90;;;;;;5018152;28;20528;-79
2023/08/18 02:26:21;;;;;;;27.92;18.77;;;18.00;99.90;;;;;;5004069;28;20038;-79
2023/08/18 02:28:47;;;;;;;28.60;19.48;;;18.10;99.90;;;;;;4999288;28;20053;-79
2023/08/18 02:31:12;;;;;;;35.28;20.52;;;17.90;99.90;;;;;;5003098;28;20037;-79
2023/08/18 02:33:38;;;;;;;33.20;21.73;;;17.90;99.90;;;;;;5002739;28;20037;-79
2023/08/18 02:36:04;;;;;;;30.90;20.15;;;18.00;99.90;;;;;;5001358;28;20030;-79
2023/08/18 02:38:30;;;;;;;33.65;20.08;;;17.90;99.90;;;;;;5016331;28;20061;-80
2023/08/18 02:40:55;;;;;;;34.38;20.52;;;18.00;99.90;;;;;;4990448;28;20041;-79
2023/08/18 02:43:22;;;;;;;34.08;20.33;;;18.00;99.90;;;;;;4999264;28;20131;-79
2023/08/18 02:45:47;;;;;;;27.77;18.67;;;17.90;99.90;;;;;;5003328;28;20397;-79
2023/08/18 02:48:14;;;;;;;35.65;20.65;;;18.00;99.90;;;;;;5002519;28;20034;-81
2023/08/18 02:50:40;;;;;;;34.97;20.45;;;17.90;99.90;;;;;;5018271;28;20034;-79
2023/08/18 02:53:06;;;;;;;32.67;20.38;;;17.90;99.90;;;;;;5016909;28;20034;-79
2023/08/18 02:55:34;;;;;;;34.03;21.55;;;17.90;99.90;;;;;;4999266;28;20030;-78
2023/08/18 02:58:00;;;;;;;33.08;20.67;;;17.90;99.90;;;;;;5004227;28;20132;-79
2023/08/18 03:00:26;;;;;;;33.72;20.35;;;18.00;99.90;;;;;;4988608;28;20068;-79
2023/08/18 03:02:52;;;;;;;37.33;21.98;;;17.90;99.90;;;;;;5003117;28;20044;-79
2023/08/18 03:05:17;;;;;;;35.92;21.95;;;17.90;99.90;;;;;;4999198;28;20038;-78
2023/08/18 03:07:43;;;;;;;29.73;17.10;;;17.90;99.90;;;;;;4985377;28;20037;-78
2023/08/18 03:10:09;;;;;;;33.45;21.15;;;17.90;99.90;;;;;;5013253;28;20117;-79
2023/08/18 03:12:34;;;;;;;36.97;22.67;;;17.90;99.90;;;;;;4998383;28;20057;-79
2023/08/18 03:15:00;;;;;;;31.65;19.05;;;17.80;99.90;;;;;;5002358;28;20128;-78
2023/08/18 03:17:25;;;;;;;38.25;21.80;;;17.90;99.90;;;;;;4999503;28;20061;-80
2023/08/18 03:19:51;;;;;;;37.05;21.52;;;17.90;99.90;;;;;;4985963;28;20045;-79
2023/08/18 03:22:16;;;;;;;38.05;21.58;;;17.90;99.90;;;;;;5000351;28;20041;-79
2023/08/18 03:24:42;;;;;;;39.63;22.55;;;17.90;99.90;;;;;;5000527;28;20036;-78
2023/08/18 03:27:08;;;;;;;36.42;21.10;;;17.90;99.90;;;;;;5000178;28;20045;-80
2023/08/18 03:29:33;;;;;;;31.23;19.27;;;17.80;99.90;;;;;;5000149;28;20442;-80
2023/08/18 03:31:59;;;;;;;33.90;21.17;;;17.90;99.90;;;;;;5000776;28;20343;-80
2023/08/18 03:34:25;;;;;;;34.75;21.13;;;17.90;99.90;;;;;;5012214;28;20045;-80
2023/08/18 03:36:50;;;;;;;26.88;16.77;;;17.90;99.90;;;;;;5000816;28;20041;-80
2023/08/18 03:39:16;;;;;;;32.90;21.23;;;17.90;99.90;;;;;;5012163;28;20038;-80
2023/08/18 03:41:41;;;;;;;35.85;22.17;;;17.90;99.90;;;;;;4998568;28;20060;-80
2023/08/18 03:44:07;;;;;;;35.72;22.42;;;17.80;99.90;;;;;;5008447;28;20033;-79
2023/08/18 03:46:33;;;;;;;33.63;20.88;;;17.80;99.90;;;;;;4997260;28;20030;-80
2023/08/18 03:48:59;;;;;;;36.65;20.83;;;17.80;99.90;;;;;;5015755;28;20140;-80
2023/08/18 03:51:25;;;;;;;34.05;20.63;;;17.90;99.90;;;;;;4995472;28;21849;-80
2023/08/18 03:53:51;;;;;;;34.17;21.05;;;17.80;99.90;;;;;;5013619;28;20069;-80
2023/08/18 03:56:16;;;;;;;35.92;20.35;;;17.80;99.90;;;;;;5012543;28;20119;-80
2023/08/18 03:58:42;;;;;;;34.08;18.60;;;17.90;99.90;;;;;;5005887;28;20036;-80
2023/08/18 04:01:08;;;;;;;31.98;17.77;;;17.80;99.90;;;;;;4998308;28;20033;-80
2023/08/18 04:03:35;;;;;;;32.17;19.92;;;17.80;99.90;;;;;;5000826;28;20034;-80
2023/08/18 04:06:00;;;;;;;34.15;20.48;;;17.80;99.90;;;;;;5018642;28;20717;-80
2023/08/18 04:08:26;;;;;;;31.23;19.58;;;17.80;99.90;;;;;;4997788;28;20034;-81
2023/08/18 04:10:51;;;;;;;31.88;20.15;;;17.80;99.90;;;;;;5012932;28;20026;-80
2023/08/18 04:13:17;;;;;;;31.00;18.58;;;17.80;99.90;;;;;;5011842;28;20037;-80
2023/08/18 04:15:43;;;;;;;32.38;21.02;;;17.80;99.90;;;;;;4988524;28;20034;-80
2023/08/18 04:18:08;;;;;;;38.08;21.30;;;17.80;99.90;;;;;;5002022;28;20037;-80
2023/08/18 04:20:35;;;;;;;34.00;20.30;;;17.80;99.90;;;;;;4999640;28;20026;-79
2023/08/18 04:23:01;;;;;;;34.75;20.90;;;17.80;99.90;;;;;;5013405;28;20667;-80
2023/08/18 04:25:26;;;;;;;40.22;20.50;;;17.80;99.90;;;;;;4998892;28;20037;-80
2023/08/18 04:27:52;;;;;;;37.17;20.05;;;17.80;99.90;;;;;;5016448;28;20041;-79
2023/08/18 04:30:17;;;;;;;32.70;21.45;;;17.80;99.90;;;;;;5016743;28;20521;-80
2023/08/18 04:32:43;;;;;;;30.40;19.13;;;17.80;99.90;;;;;;5000453;28;20398;-80
2023/08/18 04:35:08;;;;;;;29.25;18.77;;;17.80;99.90;;;;;;4988177;28;20053;-78
2023/08/18 04:37:34;;;;;;;31.95;19.77;;;17.80;99.90;;;;;;5016593;28;20046;-79
2023/08/18 04:40:00;;;;;;;33.58;20.58;;;17.80;99.90;;;;;;4996144;28;20076;-79
2023/08/18 04:42:25;;;;;;;34.80;20.15;;;17.80;99.90;;;;;;5014603;28;20095;-79
2023/08/18 04:44:52;;;;;;;28.08;18.02;;;17.80;99.90;;;;;;5018612;28;20507;-79
2023/08/18 04:47:17;;;;;;;27.23;18.23;;;17.70;99.90;;;;;;5019745;28;20593;-79
2023/08/18 04:49:43;;;;;;;32.17;19.35;;;17.80;99.90;;;;;;5004860;28;20120;-78
2023/08/18 04:52:10;;;;;;;28.23;18.60;;;17.80;99.90;;;;;;5003032;28;20061;-79
2023/08/18 04:54:35;;;;;;;27.30;17.63;;;17.80;99.90;;;;;;5014631;28;20034;-79
2023/08/18 04:57:03;;;;;;;31.40;19.55;;;17.80;99.90;;;;;;5016918;28;20040;-79
2023/08/18 04:59:29;;;;;;;30.70;19.20;;;17.70;99.90;;;;;;5020054;28;20040;-79
2023/08/18 05:01:55;;;;;;;29.77;17.65;;;17.80;99.90;;;;;;5014512;28;20478;-79
2023/08/18 05:04:21;;;;;;;29.00;19.05;;;17.80;99.90;;;;;;5019061;28;20037;-79
2023/08/18 05:06:46;;;;;;;30.00;17.63;;;17.80;99.90;;;;;;5004999;28;20490;-78
2023/08/18 05:09:12;;;;;;;29.95;19.70;;;17.80;99.90;;;;;;4986304;28;20477;-79
2023/08/18 05:11:37;;;;;;;30.48;18.17;;;17.80;99.90;;;;;;5016213;28;20856;-80
2023/08/18 05:14:03;;;;;;;29.20;19.42;;;17.90;99.90;;;;;;5001121;28;20055;-80
2023/08/18 05:16:28;;;;;;;24.83;17.52;;;17.80;99.90;;;;;;5017841;28;21383;-80
2023/08/18 05:18:54;;;;;;;26.60;16.67;;;17.80;99.90;;;;;;4990958;28;20056;-80
2023/08/18 05:21:19;;;;;;;24.88;16.83;;;17.80;99.90;;;;;;4991264;28;20034;-81
2023/08/18 05:23:45;;;;;;;26.60;17.70;;;17.80;99.90;;;;;;4989532;28;20025;-80
2023/08/18 05:26:11;;;;;;;35.60;18.77;;;17.90;99.90;;;;;;5005161;28;20061;-80
2023/08/18 05:28:36;;;;;;;28.35;18.77;;;17.90;99.90;;;;;;5002356;28;20548;-80
2023/08/18 05:31:02;;;;;;;27.08;18.10;;;17.90;99.90;;;;;;5016094;28;20477;-80
2023/08/18 05:33:27;;;;;;;27.38;18.63;;;17.80;99.90;;;;;;5000299;28;20084;-80
2023/08/18 05:35:56;;;;;;;26.70;18.92;;;17.90;99.90;;;;;;5019531;28;20076;-81
2023/08/18 05:38:22;;;;;;;32.08;20.48;;;17.80;99.90;;;;;;4989992;28;20486;-80
2023/08/18 05:40:50;;;;;;;32.58;20.20;;;17.90;99.90;;;;;;4986866;28;20036;-80
2023/08/18 05:43:16;;;;;;;33.78;19.80;;;18.00;99.90;;;;;;5003345;28;20497;-80
2023/08/18 05:45:43;;;;;;;27.80;19.20;;;17.90;99.90;;;;;;5004054;28;20038;-79
2023/08/18 05:48:09;;;;;;;35.58;20.13;;;18.00;99.90;;;;;;5002738;28;20053;-80
2023/08/18 05:50:34;;;;;;;31.55;20.88;;;18.00;99.90;;;;;;5000150;28;20405;-79
2023/08/18 05:53:03;;;;;;;31.00;20.25;;;18.00;99.90;;;;;;5019928;28;20038;-79
2023/08/18 05:55:28;;;;;;;30.63;18.92;;;18.00;99.90;;;;;;5014307;28;20030;-79
2023/08/18 05:57:54;;;;;;;23.83;16.15;;;18.10;99.90;;;;;;5019892;28;20063;-79
2023/08/18 06:00:20;;;;;;;34.00;18.35;;;18.10;99.90;;;;;;5018185;28;20033;-80
2023/08/18 06:02:45;;;;;;;30.45;19.02;;;18.10;99.90;;;;;;4988329;28;20590;-79
2023/08/18 06:05:14;;;;;;;21.92;13.43;;;18.10;99.90;;;;;;5012044;28;20037;-80
2023/08/18 06:07:40;;;;;;;22.40;16.65;;;18.20;99.90;;;;;;5016068;28;20036;-79
2023/08/18 06:10:06;;;;;;;27.88;17.63;;;18.30;99.90;;;;;;5010927;28;20030;-79
2023/08/18 06:12:32;;;;;;;31.75;18.67;;;18.20;99.90;;;;;;5004201;28;20516;-79
2023/08/18 06:14:57;;;;;;;29.95;18.42;;;18.20;99.90;;;;;;5001365;28;20030;-79
2023/08/18 06:17:23;;;;;;;23.35;14.85;;;18.30;99.90;;;;;;5002550;28;20034;-79
2023/08/18 06:19:51;;;;;;;26.25;17.38;;;18.30;99.90;;;;;;5016052;28;20861;-79
2023/08/18 06:22:16;;;;;;;28.90;16.75;;;18.30;99.90;;;;;;4999894;28;20603;-79
2023/08/18 06:24:42;;;;;;;25.00;15.73;;;18.30;99.90;;;;;;5015829;28;20040;-78
2023/08/18 06:27:07;;;;;;;20.30;14.52;;;18.40;99.90;;;;;;4996377;28;20044;-78
2023/08/18 06:29:33;;;;;;;21.77;14.48;;;18.40;99.90;;;;;;5017682;28;20025;-78
2023/08/18 06:31:58;;;;;;;14.82;9.75;;;18.50;99.90;;;;;;5001549;28;20372;-79
2023/08/18 06:34:24;;;;;;;20.73;13.55;;;18.40;99.90;;;;;;5004328;28;20037;-78
2023/08/18 06:36:50;;;;;;;21.30;14.30;;;18.30;99.90;;;;;;5000105;28;20038;-78
2023/08/18 06:39:16;;;;;;;23.02;14.50;;;18.50;99.90;;;;;;5015948;28;20029;-79
2023/08/18 06:41:42;;;;;;;13.77;9.40;;;18.60;99.90;;;;;;4999853;28;20048;-79
2023/08/18 06:44:08;;;;;;;18.55;11.18;;;18.60;99.90;;;;;;4986830;28;20405;-79
2023/08/18 06:46:34;;;;;;;18.48;13.77;;;18.60;99.90;;;;;;5017371;28;20045;-77
2023/08/18 06:49:01;;;;;;;20.60;13.73;;;18.70;99.90;;;;;;5017662;28;20045;-78
2023/08/18 06:51:27;;;;;;;18.73;13.15;;;18.70;99.90;;;;;;5003301;28;20379;-79
2023/08/18 06:53:53;;;;;;;17.92;13.85;;;18.80;99.90;;;;;;4997932;28;20033;-79
2023/08/18 06:56:18;;;;;;;16.58;12.25;;;18.80;99.90;;;;;;5016639;28;20379;-78
2023/08/18 06:58:44;;;;;;;13.50;9.75;;;18.80;99.90;;;;;;5002490;28;20034;-78
2023/08/18 07:01:10;;;;;;;16.05;11.75;;;19.00;99.90;;;;;;4995569;28;20048;-78
2023/08/18 07:03:35;;;;;;;17.38;12.07;;;19.00;99.90;;;;;;5012398;28;20187;-78
2023/08/18 07:06:01;;;;;;;15.63;10.98;;;19.10;99.90;;;;;;5000066;28;20413;-79
2023/08/18 07:08:26;;;;;;;12.38;10.10;;;19.10;99.90;;;;;;5015659;28;20034;-78
2023/08/18 07:10:53;;;;;;;12.23;9.65;;;19.10;99.90;;;;;;5005163;28;20042;-78
2023/08/18 07:13:21;;;;;;;13.23;10.95;;;19.20;99.90;;;;;;5016492;28;20057;-79
2023/08/18 07:15:46;;;;;;;17.95;10.82;;;19.30;99.90;;;;;;4989001;28;20037;-78
2023/08/18 07:18:12;;;;;;;12.15;9.07;;;19.40;99.90;;;;;;4994853;28;20064;-78
2023/08/18 07:20:37;;;;;;;12.90;9.90;;;19.30;99.90;;;;;;4983789;28;20095;-79
2023/08/18 07:23:03;;;;;;;16.10;11.23;;;19.50;99.90;;;;;;5001546;28;20118;-79
2023/08/18 07:25:29;;;;;;;15.50;11.73;;;19.50;99.90;;;;;;5003426;28;20773;-79
2023/08/18 07:27:55;;;;;;;13.20;10.70;;;19.60;99.90;;;;;;4994659;28;20443;-78
2023/08/18 07:30:21;;;;;;;15.82;10.05;;;19.70;99.90;;;;;;5014248;28;20030;-77
2023/08/18 07:32:47;;;;;;;14.18;10.82;;;19.80;99.90;;;;;;5011702;28;20060;-77
2023/08/18 07:35:14;;;;;;;13.57;10.25;;;19.80;99.90;;;;;;5016647;28;20037;-79
2023/08/18 07:37:39;;;;;;;13.07;9.73;;;19.90;99.90;;;;;;5002076;28;20428;-78
2023/08/18 07:40:09;;;;;;;15.73;10.25;;;20.00;99.90;;;;;;5003842;28;20033;-79
2023/08/18 07:42:34;;;;;;;13.98;9.65;;;20.10;99.90;;;;;;4991497;28;20041;-77
2023/08/18 07:45:00;;;;;;;14.18;9.82;;;20.20;99.90;;;;;;5015806;28;20029;-78
2023/08/18 07:47:25;;;;;;;12.65;9.02;;;20.30;99.90;;;;;;5000342;28;20516;-78
2023/08/18 07:49:52;;;;;;;13.95;10.13;;;20.30;99.90;;;;;;4988647;28;20040;-78
2023/08/18 07:52:18;;;;;;;11.93;8.07;;;20.40;99.90;;;;;;5017096;28;20156;-79
2023/08/18 07:54:43;;;;;;;9.77;8.18;;;20.50;99.90;;;;;;5017212;28;20037;-78
2023/08/18 07:57:09;;;;;;;11.18;8.52;;;20.70;99.90;;;;;;5012851;28;20282;-78
2023/08/18 07:59:34;;;;;;;13.52;10.60;;;20.70;99.90;;;;;;4986774;28;20057;-79
2023/08/18 08:02:00;;;;;;;15.20;9.38;;;20.90;99.90;;;;;;4998469;28;20048;-79
2023/08/18 08:04:26;;;;;;;12.25;10.18;;;20.90;99.90;;;;;;5013895;28;20144;-78
2023/08/18 08:06:53;;;;;;;16.08;9.77;;;21.00;99.90;;;;;;5018907;28;20496;-78
2023/08/18 08:09:21;;;;;;;13.35;9.88;;;21.10;99.90;;;;;;5013993;28;20022;-78
2023/08/18 08:11:46;;;;;;;14.00;10.27;;;21.20;99.90;;;;;;5012382;28;20045;-78
2023/08/18 08:14:12;;;;;;;15.77;9.98;;;21.30;99.90;;;;;;5010164;28;20064;-78
2023/08/18 08:16:37;;;;;;;12.95;10.50;;;21.30;99.90;;;;;;5016343;28;20054;-79
2023/08/18 08:19:05;;;;;;;16.75;11.52;;;21.40;99.90;;;;;;5004890;28;20072;-79
2023/08/18 08:21:31;;;;;;;13.50;10.25;;;21.60;99.90;;;;;;5017888;28;20030;-79
2023/08/18 08:23:56;;;;;;;12.50;10.40;;;21.70;99.90;;;;;;5001686;28;20060;-78
2023/08/18 08:26:22;;;;;;;11.75;8.73;;;21.80;99.90;;;;;;5018883;28;20061;-79
2023/08/18 08:28:48;;;;;;;7.78;6.88;;;21.80;99.90;;;;;;5006784;28;20038;-79
2023/08/18 08:31:14;;;;;;;10.35;9.35;;;22.00;99.90;;;;;;5002536;28;20046;-78
2023/08/18 08:33:39;;;;;;;13.35;11.38;;;22.20;99.90;;;;;;5004105;28;20042;-79
2023/08/18 08:36:05;;;;;;;12.57;9.10;;;22.30;99.90;;;;;;4992050;28;20103;-79
2023/08/18 08:38:30;;;;;;;11.23;10.02;;;22.10;99.90;;;;;;5004471;28;20070;-79
2023/08/18 08:40:58;;;;;;;10.63;9.32;;;22.30;99.90;;;;;;5015444;28;20100;-79
2023/08/18 08:43:23;;;;;;;12.73;10.57;;;22.70;99.90;;;;;;4999973;28;20030;-79
2023/08/18 08:45:49;;;;;;;11.38;10.27;;;22.90;99.90;;;;;;5003752;28;20040;-79
2023/08/18 08:48:14;;;;;;;10.80;9.43;;;23.00;99.90;;;;;;5002715;28;20033;-79
2023/08/18 08:50:41;;;;;;;13.50;9.82;;;23.20;99.90;;;;;;5004924;28;20462;-79
2023/08/18 08:53:07;;;;;;;10.60;8.80;;;23.30;99.90;;;;;;5007581;28;20035;-79
2023/08/18 08:55:32;;;;;;;9.23;8.05;;;23.50;99.90;;;;;;5002565;28;20528;-78
2023/08/18 08:57:58;;;;;;;12.07;9.45;;;23.60;99.90;;;;;;4996965;28;20038;-77
2023/08/18 09:00:24;;;;;;;10.75;9.70;;;23.80;99.90;;;;;;5016302;28;20033;-79
2023/08/18 09:02:50;;;;;;;12.10;10.02;;;23.90;99.90;;;;;;5018260;28;20509;-79
2023/08/18 09:05:15;;;;;;;15.10;10.15;;;24.00;99.90;;;;;;5004692;28;20061;-79
2023/08/18 09:07:42;;;;;;;19.55;9.98;;;24.10;99.90;;;;;;5002031;28;20107;-79
2023/08/18 09:10:09;;;;;;;11.75;8.43;;;24.20;99.90;;;;;;5001276;28;20038;-79
2023/08/18 09:12:34;;;;;;;9.30;8.10;;;24.40;99.90;;;;;;4981959;28;20773;-79
2023/08/18 09:15:01;;;;;;;12.40;10.07;;;24.50;99.90;;;;;;4981281;28;20080;-79
2023/08/18 09:17:27;;;;;;;10.95;9.82;;;24.70;99.90;;;;;;5017951;28;20250;-79
2023/08/18 09:19:56;;;;;;;7.25;6.47;;;24.80;99.90;;;;;;5005397;28;20030;-79
2023/08/18 09:22:22;;;;;;;13.73;8.95;;;24.90;99.90;;;;;;5016763;28;20057;-79
2023/08/18 09:24:51;;;;;;;11.23;9.95;;;25.00;99.90;;;;;;5005867;28;20493;-79
2023/08/18 09:27:17;;;;;;;8.48;6.55;;;25.30;99.90;;;;;;5005086;28;20037;-79
2023/08/18 09:29:42;;;;;;;6.38;5.63;;;25.50;99.90;;;;;;5003671;28;20504;-78
2023/08/18 09:32:08;;;;;;;11.30;9.80;;;25.50;99.90;;;;;;5017428;28;20044;-79
2023/08/18 09:34:46;;;;;;;8.88;7.93;;;25.80;99.90;;;;;;5018842;28;20040;-79
2023/08/18 09:37:11;;;;;;;11.50;9.15;;;26.10;99.90;;;;;;5002655;28;20109;-79
2023/08/18 09:39:37;;;;;;;7.57;6.78;;;26.20;99.90;;;;;;5016358;28;20389;-79
2023/08/18 09:42:03;;;;;;;14.55;10.88;;;26.50;99.90;;;;;;5016162;28;20029;-79
2023/08/18 09:44:29;;;;;;;9.43;8.40;;;26.60;99.90;;;;;;5002188;28;20044;-79
2023/08/18 09:46:56;;;;;;;7.13;6.43;;;26.90;99.90;;;;;;5017093;28;20108;-77
2023/08/18 09:49:22;;;;;;;8.23;7.43;;;27.10;99.90;;;;;;5003535;28;20405;-80
2023/08/18 09:52:05;;;;;;;8.90;8.00;;;27.20;99.90;;;;;;4997415;28;20095;-81
2023/08/18 09:54:34;;;;;;;8.40;7.60;;;27.20;99.90;;;;;;4995214;28;20493;-79
2023/08/18 09:57:02;;;;;;;9.63;8.60;;;27.00;99.90;;;;;;4992414;28;20040;-79
2023/08/18 09:59:38;;;;;;;10.45;6.40;;;27.30;99.90;;;;;;5005826;28;20482;-79
2023/08/18 10:02:03;;;;;;;5.75;5.25;;;27.80;99.90;;;;;;5005640;28;20044;-79
2023/08/18 10:04:42;;;;;;;9.63;7.65;;;28.00;99.90;;;;;;5007159;28;20389;-79
2023/08/18 10:07:08;;;;;;;7.97;7.20;;;28.10;99.90;;;;;;5004856;28;20029;-80
2023/08/18 10:09:35;;;;;;;9.50;7.85;;;28.50;99.90;;;;;;5017004;28;20057;-79
2023/08/18 10:12:01;;;;;;;9.27;8.38;;;28.70;99.90;;;;;;5019853;28;20040;-80
2023/08/18 10:14:27;;;;;;;5.03;4.40;;;28.80;99.90;;;;;;5005197;28;20037;-80
2023/08/18 10:16:52;;;;;;;8.15;6.97;;;29.00;99.90;;;;;;5008298;28;20467;-79
2023/08/18 10:19:50;;;;;;;6.45;5.85;;;29.20;99.90;;;;;;5022487;28;20033;-79
2023/08/18 10:22:17;;;;;;;8.85;7.93;;;29.40;99.90;;;;;;5038737;28;20037;-79
2023/08/18 10:24:49;;;;;;;9.18;8.27;;;29.50;99.90;;;;;;5003344;28;20492;-79
2023/08/18 10:27:26;;;;;;;7.38;6.10;;;29.70;99.90;;;;;;5018835;28;20042;-79
2023/08/18 10:30:15;;;;;;;6.70;6.10;;;29.60;99.90;;;;;;5026026;28;20037;-79
2023/08/18 10:32:41;;;;;;;7.22;6.57;;;29.60;99.90;;;;;;4997335;28;20026;-80
2023/08/18 10:35:22;;;;;;;8.65;7.75;;;29.60;99.90;;;;;;5016142;28;20040;-79
2023/08/18 10:37:51;;;;;;;9.15;8.25;;;29.70;99.90;;;;;;5000772;28;20037;-79
2023/08/18 10:40:26;;;;;;;9.95;8.95;;;29.90;99.90;;;;;;5016122;28;20041;-80
2023/08/18 10:42:56;;;;;;;7.85;7.15;;;30.00;99.90;;;;;;5003241;28;20433;-80
2023/08/18 10:45:29;;;;;;;6.85;6.15;;;30.10;99.90;;;;;;5003128;28;20026;-80
2023/08/18 10:48:00;;;;;;;9.05;8.25;;;30.00;99.90;;;;;;5015815;28;20117;-80
2023/08/18 10:50:29;;;;;;;5.45;4.95;;;30.00;99.90;;;;;;4983984;28;20553;-80
2023/08/18 10:52:55;;;;;;;9.82;8.60;;;29.90;99.90;;;;;;4983023;28;20025;-80
2023/08/18 10:55:24;;;;;;;7.82;7.05;;;29.90;99.90;;;;;;5019909;28;20048;-79
2023/08/18 10:57:50;;;;;;;7.47;6.57;;;30.10;99.90;;;;;;5017818;28;20056;-80
2023/08/18 11:00:18;;;;;;;5.43;4.95;;;30.10;99.90;;;;;;4981779;28;25570;-80
2023/08/18 11:02:44;;;;;;;5.57;5.13;;;30.10;99.90;;;;;;4990489;28;20033;-80
2023/08/18 11:05:10;;;;;;;7.28;6.60;;;30.20;99.90;;;;;;5018015;28;20401;-80
2023/08/18 11:07:36;;;;;;;4.85;4.45;;;30.30;99.90;;;;;;4981571;28;20524;-80
2023/08/18 11:10:18;;;;;;;5.95;5.38;;;30.30;99.90;;;;;;5000829;28;20029;-80
2023/08/18 11:12:44;;;;;;;13.02;6.80;;;30.30;99.90;;;;;;4999442;28;20036;-80
2023/08/18 11:15:10;;;;;;;7.95;5.63;;;30.40;99.90;;;;;;5001449;28;20034;-80
2023/08/18 11:17:36;;;;;;;9.05;8.15;;;30.30;99.90;;;;;;5016367;28;20075;-80
2023/08/18 11:20:01;;;;;;;8.80;7.78;;;30.60;99.90;;;;;;4988631;28;20474;-80
2023/08/18 11:22:28;;;;;;;7.78;6.93;;;30.60;99.90;;;;;;5003574;28;20033;-80
2023/08/18 11:24:54;;;;;;;10.52;8.82;;;30.60;99.90;;;;;;5001516;28;20029;-79
2023/08/18 11:27:20;;;;;;;8.50;7.60;;;30.70;99.90;;;;;;5014738;28;20444;-80
2023/08/18 11:29:45;;;;;;;8.60;7.80;;;30.70;99.90;;;;;;5019053;28;20032;-79
2023/08/18 11:32:11;;;;;;;8.00;6.82;;;30.60;99.90;;;;;;5014288;28;20214;-79
2023/08/18 11:34:37;;;;;;;8.02;7.22;;;30.60;99.90;;;;;;4989970;28;20041;-80
2023/08/18 11:37:04;;;;;;;6.78;5.63;;;30.70;99.90;;;;;;4998508;28;20029;-79
2023/08/18 11:39:30;;;;;;;9.95;8.55;;;30.90;99.90;;;;;;5020742;28;20034;-79
2023/08/18 11:41:56;;;;;;;6.72;5.82;;;31.00;99.90;;;;;;4999747;28;20520;-78
2023/08/18 11:44:22;;;;;;;5.53;5.07;;;31.00;99.90;;;;;;4998895;28;20062;-79
2023/08/18 11:46:48;;;;;;;5.82;5.32;;;31.00;99.90;;;;;;5015791;28;20030;-78
2023/08/18 11:49:20;;;;;;;10.75;8.77;;;31.30;99.90;;;;;;5017761;28;20091;-79
2023/08/18 11:51:55;;;;;;;9.90;8.45;;;31.30;99.90;;;;;;4996628;28;20084;-79
2023/08/18 11:54:21;;;;;;;;;;;31.40;99.90;;;;;;5001478;28;20109;-79
2023/08/18 11:56:47;;;;;;;11.27;10.07;;;31.50;99.90;;;;;;5014138;28;20543;-78
2023/08/18 11:59:22;;;;;;;8.07;7.35;;;31.70;99.90;;;;;;5014176;28;20042;-79
2023/08/18 12:02:13;;;;;;;7.28;6.40;;;31.60;99.90;;;;;;5002241;28;20052;-78
2023/08/18 12:04:41;;;;;;;12.13;10.20;;;31.40;99.90;;;;;;5013765;28;20040;-78
2023/08/18 12:07:06;;;;;;;12.02;10.98;;;31.60;99.90;;;;;;4998978;28;20039;-79
2023/08/18 12:09:33;;;;;;;10.07;8.10;;;31.70;99.90;;;;;;5002524;28;20029;-79
2023/08/18 12:11:59;;;;;;;16.08;8.52;;;31.80;99.90;;;;;;5011271;28;20108;-79
2023/08/18 12:14:24;;;;;;;8.88;8.07;;;31.80;99.90;;;;;;5015867;28;20113;-79
2023/08/18 12:16:50;;;;;;;7.82;7.13;;;31.90;99.90;;;;;;5011344;28;20142;-79
2023/08/18 12:19:18;;;;;;;9.95;9.05;;;31.80;99.90;;;;;;4999508;28;20401;-79
2023/08/18 12:21:44;;;;;;;11.98;9.57;;;31.90;99.90;;;;;;5001673;28;20033;-79
2023/08/18 12:24:09;;;;;;;14.45;10.35;;;32.10;99.90;;;;;;4987797;28;20088;-79
2023/08/18 12:26:37;;;;;;;10.02;8.98;;;32.10;99.90;;;;;;5015216;28;20029;-79
2023/08/18 12:29:03;;;;;;;7.35;6.40;;;32.10;99.90;;;;;;5013224;28;20099;-79
2023/08/18 12:31:32;;;;;;;8.38;7.57;;;32.20;99.90;;;;;;5013063;28;20037;-79